createdAt,value
2017-11-08T00:01:03.187Z,78.37
2017-11-08T00:03:40.909Z,78.39
2017-11-08T00:06:17.572Z,78.46
2017-11-08T00:08:55.341Z,79.06
2017-11-08T00:11:32.096Z,78.76
2017-11-08T00:14:11.401Z,78.80
2017-11-08T00:16:50.495Z,79.00
2017-11-08T00:19:27.454Z,78.62
2017-11-08T00:22:08.069Z,78.83
2017-11-08T00:24:46.994Z,78.74
2017-11-08T00:27:24.278Z,79.26
2017-11-08T00:30:02.290Z,78.80
2017-11-08T00:32:39.374Z,78.93
2017-11-08T00:35:16.292Z,78.81
2017-11-08T00:37:53.506Z,78.93
2017-11-08T00:40:31.417Z,78.43
2017-11-08T00:43:00.398Z,78.33
2017-11-08T00:45:37.201Z,78.24
2017-11-08T00:48:14.101Z,78.15
2017-11-08T00:50:53.523Z,77.51
2017-11-08T00:53:30.762Z,77.83
2017-11-08T00:56:11.602Z,77.69
2017-11-08T00:58:48.347Z,77.99
2017-11-08T01:01:25.841Z,77.64
2017-11-08T01:04:03.285Z,77.85
2017-11-08T01:06:40.307Z,78.39
2017-11-08T01:09:17.184Z,78.25
2017-11-08T01:11:55.186Z,78.47
2017-11-08T01:14:31.972Z,78.80
2017-11-08T01:17:09.455Z,79.11
2017-11-08T01:19:46.440Z,79.17
2017-11-08T01:22:25.519Z,79.29
2017-11-08T01:25:02.310Z,79.93
2017-11-08T01:27:39.761Z,79.96
2017-11-08T01:30:17.071Z,79.91
2017-11-08T01:32:58.455Z,80.21
2017-11-08T01:35:35.073Z,80.07
2017-11-08T01:38:15.995Z,80.16
2017-11-08T01:40:53.407Z,80.22
2017-11-08T01:43:32.056Z,80.30
2017-11-08T01:46:09.119Z,80.27
2017-11-08T01:48:50.211Z,80.13
2017-11-08T01:51:26.891Z,80.13
2017-11-08T01:54:04.111Z,80.56
2017-11-08T01:56:41.240Z,80.96
2017-11-08T01:59:19.065Z,80.91
2017-11-08T02:01:55.663Z,80.67
2017-11-08T02:04:33.737Z,80.95
2017-11-08T02:09:48.149Z,81.17
2017-11-08T02:12:17.166Z,81.36
2017-11-08T02:14:56.025Z,81.49
2017-11-08T02:17:33.499Z,81.35
2017-11-08T02:20:10.687Z,81.39
2017-11-08T02:22:47.599Z,80.98
2017-11-08T02:25:31.334Z,80.79
2017-11-08T02:28:10.416Z,80.76
2017-11-08T02:30:47.708Z,80.78
2017-11-08T02:33:24.551Z,80.67
2017-11-08T02:36:02.329Z,80.63
2017-11-08T02:38:39.332Z,80.72
2017-11-08T02:44:26.727Z,80.69
2017-11-08T02:47:06.468Z,81.01
2017-11-08T02:49:45.675Z,80.87
2017-11-08T02:52:22.615Z,80.98
2017-11-08T02:55:05.426Z,80.98
2017-11-08T02:57:42.715Z,81.21
2017-11-08T03:00:20.806Z,81.55
2017-11-08T03:02:57.519Z,81.35
2017-11-08T03:05:38.473Z,81.46
2017-11-08T03:08:15.352Z,81.58
2017-11-08T03:10:54.556Z,81.24
2017-11-08T03:13:33.437Z,81.29
2017-11-08T03:16:10.647Z,81.73
2017-11-08T03:18:47.581Z,81.71
2017-11-08T03:21:25.703Z,81.63
2017-11-08T03:24:02.649Z,81.66
2017-11-08T03:26:40.197Z,81.97
2017-11-08T03:29:17.094Z,81.83
2017-11-08T03:31:53.838Z,81.81
2017-11-08T03:34:31.260Z,82.42
2017-11-08T03:37:08.190Z,82.30
2017-11-08T03:39:45.634Z,82.35
2017-11-08T03:42:22.287Z,82.38
2017-11-08T03:44:59.762Z,82.78
2017-11-08T03:47:36.449Z,82.95
2017-11-08T03:50:13.710Z,83.02
2017-11-08T03:52:53.014Z,83.08
2017-11-08T03:55:30.466Z,83.09
2017-11-08T03:58:08.948Z,82.90
2017-11-08T04:00:47.889Z,82.68
2017-11-08T04:03:26.580Z,82.45
2017-11-08T04:06:03.810Z,82.60
2017-11-08T04:08:44.249Z,82.69
2017-11-08T04:11:20.833Z,82.58
2017-11-08T04:13:57.981Z,82.39
2017-11-08T04:16:35.177Z,82.36
2017-11-08T04:19:13.265Z,82.53
2017-11-08T04:21:50.112Z,82.83
2017-11-08T04:24:27.487Z,82.61
2017-11-08T04:27:07.663Z,82.51
2017-11-08T04:29:45.182Z,82.52
2017-11-08T04:32:22.478Z,82.46
2017-11-08T04:34:59.313Z,82.12
2017-11-08T04:37:36.557Z,81.85
2017-11-08T04:40:14.117Z,81.79
2017-11-08T04:42:42.993Z,82.22
2017-11-08T04:45:27.180Z,82.03
2017-11-08T04:48:03.835Z,81.65
2017-11-08T04:50:44.804Z,81.76
2017-11-08T04:53:21.600Z,81.89
2017-11-08T04:56:00.326Z,82.21
2017-11-08T04:58:37.422Z,82.37
2017-11-08T05:01:14.917Z,82.45
2017-11-08T05:03:43.891Z,82.60
2017-11-08T05:06:21.827Z,82.77
2017-11-08T05:08:58.778Z,82.69
2017-11-08T05:11:36.570Z,82.94
2017-11-08T05:14:13.480Z,83.00
2017-11-08T05:16:50.521Z,83.16
2017-11-08T05:19:27.936Z,83.09
2017-11-08T05:22:10.148Z,82.98
2017-11-08T05:24:47.153Z,82.80
2017-11-08T05:27:24.337Z,82.50
2017-11-08T05:30:01.806Z,82.67
2017-11-08T05:32:40.206Z,82.32
2017-11-08T05:35:17.508Z,82.25
2017-11-08T05:37:52.605Z,81.93
2017-11-08T05:40:21.491Z,81.75
2017-11-08T05:43:00.955Z,81.82
2017-11-08T05:45:40.106Z,81.41
2017-11-08T05:48:17.367Z,81.56
2017-11-08T05:50:54.709Z,81.11
2017-11-08T05:53:31.688Z,81.12
2017-11-08T05:56:08.635Z,80.94
2017-11-08T05:58:47.724Z,81.08
2017-11-08T06:01:27.109Z,80.74
2017-11-08T06:04:04.914Z,80.17
2017-11-08T06:06:42.416Z,79.41
2017-11-08T06:09:19.313Z,78.77
2017-11-08T06:11:58.597Z,77.82
2017-11-08T06:14:38.394Z,78.10
2017-11-08T06:17:21.435Z,78.35
2017-11-08T06:19:58.159Z,78.80
2017-11-08T06:22:38.273Z,79.12
2017-11-08T06:25:17.690Z,80.53
2017-11-08T06:27:54.826Z,80.51
2017-11-08T06:33:08.880Z,81.06
2017-11-08T06:35:48.762Z,80.74
2017-11-08T06:38:25.729Z,81.29
2017-11-08T06:41:04.796Z,80.74
2017-11-08T06:43:47.584Z,80.27
2017-11-08T06:46:24.421Z,80.42
2017-11-08T06:49:01.590Z,80.70
2017-11-08T06:51:38.774Z,80.07
2017-11-08T06:54:16.653Z,78.81
2017-11-08T06:56:53.975Z,78.26
2017-11-08T06:59:30.599Z,78.16
2017-11-08T07:02:09.759Z,78.09
2017-11-08T07:04:46.557Z,77.40
2017-11-08T07:07:24.451Z,77.82
2017-11-08T07:10:01.517Z,78.13
2017-11-08T07:12:38.643Z,76.76
2017-11-08T07:15:15.988Z,78.23
2017-11-08T07:17:52.806Z,78.80
2017-11-08T07:20:30.157Z,78.88
2017-11-08T07:23:07.180Z,79.24
2017-11-08T07:25:44.006Z,78.52
2017-11-08T07:28:20.917Z,78.48
2017-11-08T07:30:57.867Z,77.56
2017-11-08T07:33:36.722Z,77.39
2017-11-08T07:36:14.067Z,76.37
2017-11-08T07:38:52.545Z,77.32
2017-11-08T07:41:29.568Z,77.15
2017-11-08T07:44:06.754Z,77.37
2017-11-08T07:46:43.850Z,76.42
2017-11-08T07:52:07.983Z,75.63
2017-11-08T07:54:48.310Z,75.68
2017-11-08T07:57:27.255Z,74.90
2017-11-08T08:00:04.588Z,75.21
2017-11-08T08:02:42.333Z,74.13
2017-11-08T08:05:18.972Z,75.26
2017-11-08T08:07:59.765Z,74.82
2017-11-08T08:10:40.140Z,75.26
2017-11-08T08:13:19.701Z,74.76
2017-11-08T08:15:56.941Z,74.24
2017-11-08T08:18:34.851Z,74.85
2017-11-08T08:21:16.458Z,75.05
2017-11-08T08:23:54.626Z,74.71
2017-11-08T08:26:32.550Z,74.67
2017-11-08T08:29:09.468Z,74.43
2017-11-08T08:31:46.095Z,73.10
2017-11-08T08:34:24.954Z,71.19
2017-11-08T08:37:01.838Z,71.78
2017-11-08T08:39:38.624Z,71.53
2017-11-08T08:42:14.969Z,72.29
2017-11-08T08:44:52.055Z,72.91
2017-11-08T08:47:28.960Z,73.20
2017-11-08T08:50:06.239Z,73.35
2017-11-08T08:52:43.096Z,73.40
2017-11-08T08:55:20.130Z,74.77
2017-11-08T08:57:57.057Z,74.44
2017-11-08T09:00:35.494Z,74.02
2017-11-08T09:03:12.707Z,73.45
2017-11-08T09:05:50.498Z,72.87
2017-11-08T09:08:27.217Z,72.68
2017-11-08T09:11:05.361Z,71.51
2017-11-08T09:13:42.312Z,71.75
2017-11-08T09:16:19.307Z,70.70
2017-11-08T09:18:56.637Z,71.46
2017-11-08T09:21:44.465Z,71.89
2017-11-08T09:24:26.329Z,72.20
2017-11-08T09:27:04.164Z,73.86
2017-11-08T09:29:41.295Z,73.97
2017-11-08T09:32:18.456Z,75.52
2017-11-08T09:35:00.443Z,75.52
2017-11-08T09:37:39.835Z,76.49
2017-11-08T09:40:16.482Z,77.20
2017-11-08T09:42:55.359Z,77.22
2017-11-08T09:45:37.309Z,76.55
2017-11-08T09:48:13.932Z,76.71
2017-11-08T09:50:50.989Z,75.09
2017-11-08T09:53:31.010Z,74.73
2017-11-08T09:56:08.630Z,73.45
2017-11-08T09:58:45.420Z,73.61
2017-11-08T10:01:24.563Z,72.30
2017-11-08T10:04:03.459Z,71.44
2017-11-08T10:06:40.959Z,70.98
2017-11-08T10:09:30.512Z,70.81
2017-11-08T10:12:12.890Z,69.95
2017-11-08T10:14:49.925Z,67.95
2017-11-08T10:17:26.885Z,70.88
2017-11-08T10:20:03.938Z,70.29
2017-11-08T10:22:40.889Z,70.65
2017-11-08T10:25:18.189Z,69.43
2017-11-08T10:27:56.039Z,68.76
2017-11-08T10:30:32.530Z,68.68
2017-11-08T10:33:09.892Z,67.84
2017-11-08T10:35:46.399Z,66.48
2017-11-08T10:38:23.015Z,66.45
2017-11-08T10:41:00.612Z,67.01
2017-11-08T10:43:29.424Z,67.01
2017-11-08T10:46:06.472Z,64.75
2017-11-08T10:48:38.016Z,65.89
2017-11-08T10:51:16.053Z,67.94
2017-11-08T10:53:52.931Z,67.85
2017-11-08T10:56:31.348Z,65.69
2017-11-08T10:59:13.885Z,63.16
2017-11-08T11:01:53.190Z,63.38
2017-11-08T11:04:32.630Z,64.14
2017-11-08T11:07:11.490Z,64.61
2017-11-08T11:09:49.180Z,65.45
2017-11-08T11:12:26.672Z,66.41
2017-11-08T11:15:03.753Z,68.81
2017-11-08T11:17:40.548Z,68.18
2017-11-08T11:20:19.361Z,67.57
2017-11-08T11:22:56.325Z,68.94
2017-11-08T11:25:32.950Z,69.82
2017-11-08T11:28:12.405Z,67.58
2017-11-08T11:30:52.591Z,67.01
2017-11-08T11:33:29.400Z,67.24
2017-11-08T11:39:00.264Z,68.22
2017-11-08T11:41:37.253Z,67.91
2017-11-08T11:44:14.983Z,68.40
2017-11-08T11:46:52.218Z,68.88
2017-11-08T11:49:34.815Z,69.08
2017-11-08T11:52:12.113Z,69.38
2017-11-08T11:54:49.875Z,69.66
2017-11-08T11:57:26.932Z,70.11
2017-11-08T12:00:08.761Z,70.06
2017-11-08T12:02:45.812Z,70.56
2017-11-08T12:05:23.699Z,70.44
2017-11-08T12:08:00.623Z,71.02
2017-11-08T12:10:40.786Z,71.21
2017-11-08T12:13:17.737Z,71.53
2017-11-08T12:15:55.837Z,71.48
2017-11-08T12:18:33.040Z,71.46
2017-11-08T12:21:13.904Z,70.68
2017-11-08T12:23:51.001Z,71.26
2017-11-08T12:26:32.553Z,70.49
2017-11-08T12:29:09.883Z,70.99
2017-11-08T12:31:46.817Z,70.94
2017-11-08T12:34:23.545Z,70.47
2017-11-08T12:37:00.474Z,70.93
2017-11-08T12:39:37.118Z,70.90
2017-11-08T12:45:20.462Z,71.78
2017-11-08T12:47:57.378Z,71.01
2017-11-08T12:50:35.331Z,71.90
2017-11-08T12:53:12.328Z,72.71
2017-11-08T12:55:49.583Z,72.70
2017-11-08T12:58:26.518Z,73.24
2017-11-08T13:01:03.354Z,73.32
2017-11-08T13:03:40.082Z,73.29
2017-11-08T13:06:18.845Z,73.18
2017-11-08T13:08:55.896Z,72.51
2017-11-08T13:11:37.006Z,72.62
2017-11-08T13:14:14.505Z,73.07
2017-11-08T13:16:55.195Z,72.93
2017-11-08T13:19:32.650Z,73.01
2017-11-08T13:22:10.629Z,73.15
2017-11-08T13:24:47.526Z,73.17
2017-11-08T13:27:27.284Z,73.49
2017-11-08T13:30:04.355Z,73.95
2017-11-08T13:32:42.342Z,73.64
2017-11-08T13:35:19.296Z,74.15
2017-11-08T13:37:58.682Z,74.09
2017-11-08T13:40:35.209Z,73.77
2017-11-08T13:43:12.261Z,74.17
2017-11-08T13:45:50.677Z,74.36
2017-11-08T13:48:27.943Z,74.92
2017-11-08T13:51:05.141Z,74.91
2017-11-08T13:53:42.122Z,75.05
2017-11-08T13:56:19.011Z,75.30
2017-11-08T14:01:38.461Z,74.91
2017-11-08T14:04:19.000Z,75.18
2017-11-08T14:07:01.048Z,75.28
2017-11-08T14:09:38.750Z,75.89
2017-11-08T14:12:15.465Z,76.47
2017-11-08T14:14:52.600Z,76.72
2017-11-08T14:17:29.276Z,76.78
2017-11-08T14:20:06.118Z,76.90
2017-11-08T14:22:43.190Z,76.96
2017-11-08T14:25:24.441Z,77.34
2017-11-08T14:28:01.859Z,77.25
2017-11-08T14:30:38.847Z,77.68
2017-11-08T14:33:15.355Z,77.84
2017-11-08T14:35:52.095Z,78.12
2017-11-08T14:38:29.051Z,78.09
2017-11-08T14:41:06.965Z,78.22
2017-11-08T14:43:35.784Z,78.06
2017-11-08T14:46:13.831Z,77.95
2017-11-08T14:48:50.698Z,78.04
2017-11-08T14:51:27.390Z,78.04
2017-11-08T14:54:07.288Z,78.18
2017-11-08T14:56:44.180Z,78.66
2017-11-08T14:59:21.104Z,78.67
2017-11-08T15:01:58.127Z,78.25
2017-11-08T15:04:35.370Z,78.55
2017-11-08T15:07:16.709Z,79.02
2017-11-08T15:09:53.836Z,79.18
2017-11-08T15:12:36.724Z,78.14
2017-11-08T15:15:16.260Z,77.86
2017-11-08T15:17:59.809Z,77.73
2017-11-08T15:20:37.030Z,77.88
2017-11-08T15:23:13.818Z,78.26
2017-11-08T15:25:50.616Z,77.97
2017-11-08T15:28:28.229Z,77.84
2017-11-08T15:31:06.753Z,77.93
2017-11-08T15:33:47.602Z,77.94
2017-11-08T15:36:24.502Z,78.07
2017-11-08T15:39:03.176Z,77.95
2017-11-08T15:41:39.733Z,77.89
2017-11-08T15:44:22.208Z,78.10
2017-11-08T15:46:59.119Z,79.15
2017-11-08T15:49:35.862Z,78.76
2017-11-08T15:52:12.497Z,78.52
2017-11-08T15:54:50.105Z,78.81
2017-11-08T15:57:26.905Z,78.68
2017-11-08T16:00:06.035Z,78.65
2017-11-08T16:02:44.429Z,79.20
2017-11-08T16:05:22.353Z,79.82
2017-11-08T16:07:58.975Z,79.50
2017-11-08T16:10:37.540Z,79.77
2017-11-08T16:13:14.832Z,79.54
2017-11-08T16:15:52.235Z,79.40
2017-11-08T16:18:29.119Z,79.41
2017-11-08T16:21:06.129Z,79.41
2017-11-08T16:23:43.261Z,79.08
2017-11-08T16:26:21.855Z,79.26
2017-11-08T16:28:58.527Z,79.23
2017-11-08T16:31:38.544Z,79.02
2017-11-08T16:34:15.833Z,79.02
2017-11-08T16:36:53.603Z,79.40
2017-11-08T16:39:31.949Z,79.42
2017-11-08T16:45:10.332Z,79.29
2017-11-08T16:47:47.291Z,79.60
2017-11-08T16:50:24.249Z,79.56
2017-11-08T16:53:01.428Z,79.68
2017-11-08T16:55:42.761Z,80.15
2017-11-08T16:58:19.892Z,80.33
2017-11-08T17:00:58.290Z,80.40
2017-11-08T17:03:35.345Z,80.89
2017-11-08T17:06:13.089Z,81.00
2017-11-08T17:08:50.032Z,81.10
2017-11-08T17:11:26.895Z,81.05
2017-11-08T17:14:03.978Z,81.08
2017-11-08T17:16:41.128Z,80.97
2017-11-08T17:19:18.383Z,81.31
2017-11-08T17:21:58.719Z,81.22
2017-11-08T17:24:35.519Z,81.19
2017-11-08T17:27:13.291Z,81.48
2017-11-08T17:29:50.764Z,81.40
2017-11-08T17:32:28.201Z,81.55
2017-11-08T17:35:05.349Z,81.47
2017-11-08T17:37:42.115Z,81.46
2017-11-08T17:40:18.652Z,81.48
2017-11-08T17:42:55.496Z,81.17
2017-11-08T17:45:24.422Z,81.01
2017-11-08T17:48:03.595Z,80.21
2017-11-08T17:50:32.489Z,79.83
2017-11-08T17:53:09.780Z,80.02
2017-11-08T17:55:47.211Z,80.20
2017-11-08T17:58:24.156Z,80.40
2017-11-08T18:01:00.946Z,80.80
2017-11-08T18:03:39.637Z,80.58
2017-11-08T18:06:16.168Z,80.53
2017-11-08T18:08:54.654Z,79.91
2017-11-08T18:11:32.068Z,79.79
2017-11-08T18:14:10.692Z,80.57
2017-11-08T18:16:47.869Z,80.46
2017-11-08T18:19:27.472Z,80.11
2017-11-08T18:22:04.769Z,80.52
2017-11-08T18:24:46.256Z,80.73
2017-11-08T18:27:22.848Z,81.06
2017-11-08T18:30:03.414Z,80.86
2017-11-08T18:32:40.599Z,80.69
2017-11-08T18:35:21.749Z,80.07
2017-11-08T18:37:51.690Z,80.26
2017-11-08T18:40:33.060Z,79.51
2017-11-08T18:46:14.087Z,79.41
2017-11-08T18:48:50.909Z,79.58
2017-11-08T18:51:27.838Z,79.46
2017-11-08T18:54:05.154Z,79.12
2017-11-08T18:56:43.509Z,78.93
2017-11-08T18:59:20.989Z,79.05
2017-11-08T19:01:58.283Z,79.15
2017-11-08T19:04:35.443Z,79.73
2017-11-08T19:07:13.448Z,79.83
2017-11-08T19:09:50.515Z,80.16
2017-11-08T19:12:28.385Z,79.90
2017-11-08T19:15:05.925Z,79.61
2017-11-08T19:17:44.139Z,79.71
2017-11-08T19:20:21.384Z,80.38
2017-11-08T19:22:58.614Z,80.37
2017-11-08T19:25:27.628Z,80.21
2017-11-08T19:28:06.098Z,79.72
2017-11-08T19:30:43.190Z,79.74
2017-11-08T19:33:21.285Z,80.08
2017-11-08T19:35:58.193Z,79.94
2017-11-08T19:38:35.198Z,79.83
2017-11-08T19:41:12.096Z,79.88
2017-11-08T19:43:49.963Z,80.63
2017-11-08T19:46:26.669Z,80.21
2017-11-08T19:49:04.949Z,80.53
2017-11-08T19:51:42.237Z,80.02
2017-11-08T19:54:21.601Z,79.90
2017-11-08T19:56:58.522Z,80.02
2017-11-08T19:59:37.928Z,80.01
2017-11-08T20:02:14.866Z,79.72
2017-11-08T20:04:54.711Z,80.19
2017-11-08T20:07:32.101Z,81.09
2017-11-08T20:10:09.832Z,80.96
2017-11-08T20:12:38.766Z,81.50
2017-11-08T20:15:07.716Z,81.00
2017-11-08T20:17:44.699Z,80.83
2017-11-08T20:20:21.521Z,80.74
2017-11-08T20:23:00.849Z,81.10
2017-11-08T20:25:33.621Z,82.07
2017-11-08T20:28:11.128Z,81.80
2017-11-08T20:49:34.846Z,81.33
2017-11-08T20:52:12.267Z,81.98
2017-11-08T20:54:49.391Z,81.94
2017-11-08T20:57:26.191Z,81.65
2017-11-08T20:59:58.081Z,81.64
2017-11-08T21:02:35.230Z,81.64
2017-11-08T21:05:12.831Z,81.66
2017-11-08T21:07:49.916Z,81.07
2017-11-08T21:10:28.957Z,80.35
2017-11-08T21:13:05.863Z,80.06
2017-11-08T21:15:51.883Z,79.17
2017-11-08T21:18:22.938Z,80.08
2017-11-08T21:20:59.356Z,81.66
2017-11-08T21:23:36.355Z,82.84
2017-11-08T21:26:14.438Z,82.58
2017-11-08T21:28:51.493Z,82.72
2017-11-08T21:31:35.090Z,82.61
2017-11-08T21:34:12.082Z,82.80
2017-11-08T21:36:48.998Z,82.70
2017-11-08T21:39:27.679Z,82.13
2017-11-08T21:42:10.168Z,81.82
2017-11-08T21:44:47.391Z,81.45
2017-11-08T21:47:27.804Z,81.35
2017-11-08T21:49:56.706Z,82.28
2017-11-08T21:58:38.668Z,82.31
2017-11-08T22:01:21.746Z,82.44
2017-11-08T22:04:04.791Z,82.51
2017-11-08T22:06:43.579Z,82.83
2017-11-08T22:09:27.365Z,82.43
2017-11-08T22:12:04.604Z,83.53
2017-11-08T22:14:43.493Z,83.24
2017-11-08T22:17:24.951Z,84.11
2017-11-08T22:20:01.695Z,84.22
2017-11-08T22:22:38.444Z,84.93
2017-11-08T22:25:16.362Z,84.68
2017-11-08T22:27:53.354Z,85.17
2017-11-08T22:30:23.245Z,84.48
2017-11-08T22:33:13.023Z,84.31
2017-11-08T22:35:50.607Z,83.93
2017-11-08T22:38:28.247Z,83.20
2017-11-08T22:41:08.113Z,82.09
2017-11-08T22:43:49.376Z,81.21
2017-11-08T22:46:29.412Z,82.02
2017-11-08T22:49:05.956Z,81.61
2017-11-08T22:51:44.660Z,81.04
2017-11-08T22:54:21.275Z,81.06
2017-11-08T22:56:58.464Z,80.90
2017-11-08T22:59:35.077Z,80.87
2017-11-08T23:02:12.640Z,80.74
2017-11-08T23:04:49.541Z,80.42
2017-11-08T23:07:30.436Z,80.91
2017-11-08T23:10:07.840Z,79.86
2017-11-08T23:12:44.654Z,79.77
2017-11-08T23:15:21.598Z,79.10
2017-11-08T23:18:02.032Z,78.98
2017-11-08T23:20:40.702Z,79.37
2017-11-08T23:23:17.883Z,80.33
2017-11-08T23:25:55.852Z,79.80
2017-11-08T23:28:37.370Z,79.65
2017-11-08T23:31:14.749Z,79.74
2017-11-08T23:33:54.097Z,80.19
2017-11-08T23:36:30.959Z,79.74
2017-11-08T23:39:10.786Z,80.12
2017-11-08T23:41:47.367Z,80.36
2017-11-08T23:44:28.110Z,79.30
2017-11-08T23:46:58.876Z,79.14
2017-11-08T23:49:42.457Z,79.31
2017-11-08T23:52:19.413Z,80.44
2017-11-08T23:54:56.554Z,79.89
2017-11-08T23:57:36.030Z,79.81
